createdAt,value
2019-03-19T00:01:59.387Z,8.74
2019-03-19T00:04:31.134Z,8.76
2019-03-19T00:07:02.781Z,8.76
2019-03-19T00:09:34.401Z,8.78
2019-03-19T00:12:06.171Z,8.79
2019-03-19T00:14:37.788Z,8.81
2019-03-19T00:17:10.128Z,8.78
2019-03-19T00:19:41.804Z,8.76
2019-03-19T00:22:13.376Z,8.74
2019-03-19T00:24:45.309Z,8.75
2019-03-19T00:27:16.928Z,8.77
2019-03-19T00:29:49.032Z,8.79
2019-03-19T00:32:21.216Z,8.82
2019-03-19T00:34:52.973Z,8.82
2019-03-19T00:37:24.658Z,8.84
2019-03-19T00:39:56.259Z,8.80
2019-03-19T00:42:27.949Z,8.76
2019-03-19T00:44:59.585Z,8.69
2019-03-19T00:47:31.681Z,8.66
2019-03-19T00:50:03.302Z,8.64
2019-03-19T00:52:35.074Z,8.65
2019-03-19T00:55:07.243Z,8.69
2019-03-19T00:57:39.187Z,8.74
2019-03-19T01:00:11.411Z,8.75
2019-03-19T01:02:43.504Z,8.74
2019-03-19T01:05:15.208Z,8.71
2019-03-19T01:07:47.154Z,8.73
2019-03-19T01:10:19.125Z,8.76
2019-03-19T01:12:50.702Z,8.79
2019-03-19T01:15:22.404Z,8.81
2019-03-19T01:17:54.391Z,8.83
2019-03-19T01:20:26.033Z,8.85
2019-03-19T01:22:57.606Z,8.86
2019-03-19T01:25:29.363Z,8.88
2019-03-19T01:28:01.399Z,8.88
2019-03-19T01:30:33.399Z,8.90
2019-03-19T01:33:04.986Z,8.91
2019-03-19T01:35:37.247Z,8.94
2019-03-19T01:38:08.839Z,8.92
2019-03-19T01:40:40.458Z,8.90
2019-03-19T01:43:12.079Z,8.89
2019-03-19T01:45:43.711Z,8.88
2019-03-19T01:48:15.400Z,8.84
2019-03-19T01:50:47.677Z,8.90
2019-03-19T01:53:19.255Z,8.93
2019-03-19T01:55:51.152Z,8.92
2019-03-19T01:58:23.011Z,8.87
2019-03-19T02:00:54.697Z,8.77
2019-03-19T02:03:27.860Z,8.67
2019-03-19T02:06:00.147Z,8.60
2019-03-19T02:08:31.826Z,8.56
2019-03-19T02:11:03.838Z,8.58
2019-03-19T02:13:35.439Z,8.53
2019-03-19T02:16:07.077Z,8.47
2019-03-19T02:18:38.713Z,8.43
2019-03-19T02:21:11.240Z,8.41
2019-03-19T02:23:42.827Z,8.40
2019-03-19T02:26:16.680Z,8.43
2019-03-19T02:28:48.212Z,8.44
2019-03-19T02:31:20.157Z,8.44
2019-03-19T02:33:52.022Z,8.45
2019-03-19T02:36:24.328Z,8.45
2019-03-19T02:38:55.887Z,8.44
2019-03-19T02:41:27.489Z,8.42
2019-03-19T02:43:59.072Z,8.37
2019-03-19T02:46:30.924Z,8.26
2019-03-19T02:49:02.963Z,8.13
2019-03-19T02:51:35.403Z,8.03
2019-03-19T02:54:07.335Z,8.01
2019-03-19T02:56:39.095Z,8.02
2019-03-19T02:59:10.688Z,8.05
2019-03-19T03:01:42.785Z,8.08
2019-03-19T03:04:14.359Z,8.11
2019-03-19T03:06:47.041Z,8.11
2019-03-19T03:09:18.668Z,8.03
2019-03-19T03:11:50.464Z,7.96
2019-03-19T03:14:22.101Z,7.92
2019-03-19T03:16:53.669Z,7.89
2019-03-19T03:19:25.377Z,7.88
2019-03-19T03:21:57.718Z,7.83
2019-03-19T03:24:29.343Z,7.76
2019-03-19T03:27:02.461Z,7.69
2019-03-19T03:29:34.557Z,7.63
2019-03-19T03:32:06.483Z,7.61
2019-03-19T03:34:38.194Z,7.64
2019-03-19T03:37:11.047Z,7.68
2019-03-19T03:39:43.702Z,7.70
2019-03-19T03:42:15.341Z,7.65
2019-03-19T03:44:47.462Z,7.56
2019-03-19T03:47:19.104Z,7.44
2019-03-19T03:49:50.697Z,7.36
2019-03-19T03:52:22.620Z,7.34
2019-03-19T03:54:55.188Z,7.33
2019-03-19T03:57:27.082Z,7.31
2019-03-19T03:59:58.713Z,7.28
2019-03-19T04:02:30.424Z,7.31
2019-03-19T04:05:02.145Z,7.32
2019-03-19T04:07:33.716Z,7.33
2019-03-19T04:10:06.992Z,7.33
2019-03-19T04:12:38.964Z,7.34
2019-03-19T04:15:14.164Z,7.33
2019-03-19T04:17:45.783Z,7.33
2019-03-19T04:20:17.525Z,7.34
2019-03-19T04:22:49.099Z,7.35
2019-03-19T04:25:21.400Z,7.31
2019-03-19T04:27:53.048Z,7.21
2019-03-19T04:30:25.180Z,7.12
2019-03-19T04:32:57.276Z,7.02
2019-03-19T04:35:29.198Z,7.11
2019-03-19T04:38:00.807Z,7.15
2019-03-19T04:40:33.099Z,7.15
2019-03-19T04:43:04.724Z,7.13
2019-03-19T04:45:36.293Z,7.11
2019-03-19T04:48:07.910Z,7.08
2019-03-19T04:50:39.635Z,7.13
2019-03-19T04:53:11.502Z,7.16
2019-03-19T04:55:43.826Z,7.16
2019-03-19T04:58:15.571Z,7.15
2019-03-19T05:00:47.215Z,7.13
2019-03-19T05:03:18.971Z,7.09
2019-03-19T05:05:50.561Z,7.06
2019-03-19T05:08:22.355Z,7.02
2019-03-19T05:10:53.977Z,7.04
2019-03-19T05:13:26.457Z,7.06
2019-03-19T05:15:58.198Z,7.07
2019-03-19T05:18:31.401Z,7.07
2019-03-19T05:21:03.191Z,7.04
2019-03-19T05:23:35.244Z,7.02
2019-03-19T05:26:07.052Z,7.04
2019-03-19T05:28:39.415Z,7.10
2019-03-19T05:31:11.631Z,7.16
2019-03-19T05:33:43.255Z,7.24
2019-03-19T05:36:14.895Z,7.30
2019-03-19T05:38:46.493Z,7.36
2019-03-19T05:41:18.223Z,7.38
2019-03-19T05:43:50.534Z,7.34
2019-03-19T05:46:22.639Z,7.29
2019-03-19T05:48:54.290Z,7.30
2019-03-19T05:51:25.895Z,7.29
2019-03-19T05:53:57.472Z,7.24
2019-03-19T05:56:29.088Z,7.21
2019-03-19T05:59:01.563Z,7.18
2019-03-19T06:01:33.325Z,7.14
2019-03-19T06:04:04.952Z,7.10
2019-03-19T06:06:36.705Z,7.10
2019-03-19T06:09:10.066Z,7.11
2019-03-19T06:11:41.699Z,7.16
2019-03-19T06:14:13.885Z,7.19
2019-03-19T06:16:45.574Z,7.21
2019-03-19T06:19:17.378Z,7.22
2019-03-19T06:21:49.025Z,7.28
2019-03-19T06:24:20.908Z,7.35
2019-03-19T06:26:53.046Z,7.43
2019-03-19T06:29:25.382Z,7.45
2019-03-19T06:31:57.488Z,7.47
2019-03-19T06:34:29.283Z,7.51
2019-03-19T06:37:00.923Z,7.50
2019-03-19T06:39:32.613Z,7.49
2019-03-19T06:42:04.236Z,7.53
2019-03-19T06:44:36.610Z,7.59
2019-03-19T06:47:08.329Z,7.63
2019-03-19T06:49:39.951Z,7.71
2019-03-19T06:52:11.744Z,7.79
2019-03-19T06:54:43.634Z,7.86
2019-03-19T06:57:15.348Z,7.91
2019-03-19T06:59:47.587Z,7.96
2019-03-19T07:02:19.290Z,8.02
2019-03-19T07:04:51.276Z,8.09
2019-03-19T07:07:22.862Z,8.13
2019-03-19T07:09:54.590Z,8.16
2019-03-19T07:12:27.833Z,8.24
2019-03-19T07:14:59.435Z,8.33
2019-03-19T07:17:31.538Z,8.41
2019-03-19T07:20:03.246Z,8.48
2019-03-19T07:22:34.917Z,8.54
2019-03-19T07:25:06.945Z,8.59
2019-03-19T07:27:38.704Z,8.63
2019-03-19T07:30:14.519Z,8.69
2019-03-19T07:32:46.888Z,8.75
2019-03-19T07:35:18.469Z,8.80
2019-03-19T07:37:50.202Z,8.83
2019-03-19T07:40:21.817Z,8.86
2019-03-19T07:42:53.491Z,8.90
2019-03-19T07:45:25.463Z,8.92
2019-03-19T07:47:58.357Z,8.95
2019-03-19T07:50:29.955Z,8.99
2019-03-19T07:53:01.625Z,9.01
2019-03-19T07:55:33.288Z,9.06
2019-03-19T07:58:05.421Z,9.06
2019-03-19T08:00:37.026Z,9.07
2019-03-19T08:03:16.064Z,9.09
2019-03-19T08:05:42.976Z,9.15
2019-03-19T08:08:15.090Z,9.19
2019-03-19T08:10:47.028Z,9.23
2019-03-19T08:13:18.647Z,9.26
2019-03-19T08:15:50.453Z,9.33
2019-03-19T08:18:22.746Z,9.41
2019-03-19T08:20:54.626Z,9.50
2019-03-19T08:23:26.256Z,9.61
2019-03-19T08:25:58.157Z,9.70
2019-03-19T08:28:30.097Z,9.75
2019-03-19T08:31:01.939Z,9.78
2019-03-19T08:33:34.318Z,9.79
2019-03-19T08:36:09.569Z,9.83
2019-03-19T08:38:39.336Z,9.86
2019-03-19T08:41:10.937Z,9.90
2019-03-19T08:43:43.145Z,9.92
2019-03-19T08:46:14.787Z,9.93
2019-03-19T08:48:47.113Z,9.95
2019-03-19T08:51:18.708Z,10.02
2019-03-19T08:53:50.577Z,10.06
2019-03-19T08:56:22.224Z,10.10
2019-03-19T08:58:53.967Z,10.18
2019-03-19T09:01:25.599Z,10.26
2019-03-19T09:03:58.088Z,10.33
2019-03-19T09:06:29.715Z,10.41
2019-03-19T09:09:01.688Z,10.46
2019-03-19T09:11:33.296Z,10.48
2019-03-19T09:14:04.957Z,10.53
2019-03-19T09:16:36.909Z,10.57
2019-03-19T09:19:09.441Z,10.58
2019-03-19T09:21:41.217Z,10.62
2019-03-19T09:24:12.867Z,10.70
2019-03-19T09:26:44.749Z,10.76
2019-03-19T09:29:17.352Z,10.78
2019-03-19T09:31:49.435Z,10.81
2019-03-19T09:34:21.101Z,10.87
2019-03-19T09:36:57.417Z,10.97
2019-03-19T09:39:26.772Z,11.06
2019-03-19T09:41:58.554Z,11.16
2019-03-19T09:44:30.194Z,11.21
2019-03-19T09:47:01.899Z,11.26
2019-03-19T09:49:33.479Z,11.30
2019-03-19T09:52:05.784Z,11.32
2019-03-19T09:54:37.481Z,11.37
2019-03-19T09:57:09.425Z,11.44
2019-03-19T09:59:43.613Z,11.52
2019-03-19T10:02:14.570Z,11.61
2019-03-19T10:04:46.198Z,11.68
2019-03-19T10:07:18.814Z,11.75
2019-03-19T10:09:50.444Z,11.84
2019-03-19T10:12:22.336Z,11.95
2019-03-19T10:14:53.956Z,12.04
2019-03-19T10:17:25.614Z,12.13
2019-03-19T10:19:57.286Z,12.20
2019-03-19T10:22:29.568Z,12.24
2019-03-19T10:25:01.208Z,12.26
2019-03-19T10:27:33.192Z,12.32
2019-03-19T10:30:07.308Z,12.37
2019-03-19T10:32:39.404Z,12.40
2019-03-19T10:35:11.430Z,12.46
2019-03-19T10:37:43.790Z,12.51
2019-03-19T10:40:15.730Z,12.59
2019-03-19T10:42:47.481Z,12.63
2019-03-19T10:45:19.226Z,12.68
2019-03-19T10:47:50.861Z,12.71
2019-03-19T10:50:25.195Z,12.80
2019-03-19T10:52:57.678Z,12.94
2019-03-19T10:55:29.616Z,13.07
2019-03-19T10:58:10.707Z,13.17
2019-03-19T11:00:35.005Z,13.26
2019-03-19T11:03:07.255Z,13.34
2019-03-19T11:05:38.977Z,13.41
2019-03-19T11:08:10.630Z,13.50
2019-03-19T11:10:42.803Z,13.55
2019-03-19T11:13:14.786Z,13.57
2019-03-19T11:15:46.432Z,13.60
2019-03-19T11:18:18.339Z,13.61
2019-03-19T11:20:50.355Z,13.59
2019-03-19T11:23:21.987Z,13.55
2019-03-19T11:25:54.809Z,13.60
2019-03-19T11:28:26.702Z,13.55
2019-03-19T11:30:58.863Z,13.51
2019-03-19T11:33:30.671Z,13.51
2019-03-19T11:36:02.374Z,13.58
2019-03-19T11:38:34.282Z,13.62
2019-03-19T11:41:09.533Z,13.70
2019-03-19T11:43:41.436Z,13.75
2019-03-19T11:46:13.165Z,13.84
2019-03-19T11:48:44.857Z,13.98
2019-03-19T11:51:16.616Z,14.11
2019-03-19T11:53:48.275Z,14.19
2019-03-19T11:56:20.590Z,14.24
2019-03-19T11:58:52.478Z,14.31
2019-03-19T12:01:24.133Z,14.28
2019-03-19T12:03:57.646Z,14.24
2019-03-19T12:06:29.267Z,14.22
2019-03-19T12:09:01.003Z,14.23
2019-03-19T12:11:33.290Z,14.27
2019-03-19T12:14:05.029Z,14.26
2019-03-19T12:16:36.676Z,14.24
2019-03-19T12:19:08.386Z,14.22
2019-03-19T12:21:40.101Z,14.18
2019-03-19T12:24:11.891Z,14.14
2019-03-19T12:26:45.464Z,14.10
2019-03-19T12:29:17.459Z,14.09
2019-03-19T12:31:49.548Z,14.07
2019-03-19T12:34:21.251Z,14.05
2019-03-19T12:36:53.015Z,14.02
2019-03-19T12:39:24.863Z,14.00
2019-03-19T12:41:57.133Z,14.06
2019-03-19T12:44:29.000Z,14.12
2019-03-19T12:47:00.790Z,14.19
2019-03-19T12:49:32.465Z,14.27
2019-03-19T12:52:04.117Z,14.33
2019-03-19T12:54:37.818Z,14.40
2019-03-19T12:57:10.074Z,14.47
2019-03-19T12:59:42.658Z,14.50
2019-03-19T13:02:14.409Z,14.56
2019-03-19T13:04:46.435Z,14.56
2019-03-19T13:07:18.209Z,14.54
2019-03-19T13:09:50.021Z,14.50
2019-03-19T13:12:21.988Z,14.43
2019-03-19T13:14:54.490Z,14.34
2019-03-19T13:17:26.145Z,14.28
2019-03-19T13:19:57.843Z,14.26
2019-03-19T13:22:29.592Z,14.28
2019-03-19T13:25:01.233Z,14.34
2019-03-19T13:27:32.852Z,14.40
2019-03-19T13:30:05.683Z,14.45
2019-03-19T13:32:42.122Z,14.47
2019-03-19T13:35:13.939Z,14.50
2019-03-19T13:37:47.136Z,14.52
2019-03-19T13:40:18.977Z,14.57
2019-03-19T13:42:50.617Z,14.62
2019-03-19T13:45:22.952Z,14.64
2019-03-19T13:47:56.058Z,14.70
2019-03-19T13:50:27.873Z,14.75
2019-03-19T13:52:59.470Z,14.77
2019-03-19T13:55:31.152Z,14.77
2019-03-19T13:58:02.835Z,14.77
2019-03-19T14:00:35.297Z,14.79
2019-03-19T14:03:07.061Z,14.79
2019-03-19T14:05:38.795Z,14.77
2019-03-19T14:08:10.434Z,14.73
2019-03-19T14:10:42.186Z,14.68
2019-03-19T14:13:14.373Z,14.65
2019-03-19T14:15:46.731Z,14.63
2019-03-19T14:18:18.681Z,14.62
2019-03-19T14:20:51.079Z,14.59
2019-03-19T14:23:23.047Z,14.57
2019-03-19T14:25:55.042Z,14.54
2019-03-19T14:28:27.068Z,14.52
2019-03-19T14:31:08.019Z,14.47
2019-03-19T14:33:30.843Z,14.45
2019-03-19T14:36:02.735Z,14.41
2019-03-19T14:38:34.375Z,14.39
2019-03-19T14:41:06.072Z,14.36
2019-03-19T14:43:38.278Z,14.35
2019-03-19T14:46:11.165Z,14.35
2019-03-19T14:48:42.854Z,14.34
2019-03-19T14:51:14.622Z,14.35
2019-03-19T14:53:46.545Z,14.36
2019-03-19T14:56:18.185Z,14.39
2019-03-19T14:58:49.999Z,14.39
2019-03-19T15:01:22.029Z,14.40
2019-03-19T15:03:54.123Z,14.43
2019-03-19T15:06:25.748Z,14.44
2019-03-19T15:08:59.397Z,14.45
2019-03-19T15:11:31.064Z,14.43
2019-03-19T15:14:02.815Z,14.44
2019-03-19T15:16:34.442Z,14.45
2019-03-19T15:19:06.529Z,14.48
2019-03-19T15:21:38.336Z,14.50
2019-03-19T15:24:10.167Z,14.50
2019-03-19T15:26:41.809Z,14.46
2019-03-19T15:29:13.755Z,14.44
2019-03-19T15:31:45.790Z,14.41
2019-03-19T15:34:18.220Z,14.42
2019-03-19T15:36:49.843Z,14.41
2019-03-19T15:39:21.513Z,14.40
2019-03-19T15:41:53.497Z,14.35
2019-03-19T15:44:25.156Z,14.30
2019-03-19T15:46:56.852Z,14.29
2019-03-19T15:49:37.840Z,14.27
2019-03-19T15:52:02.954Z,14.27
2019-03-19T15:54:34.743Z,14.28
2019-03-19T15:57:06.537Z,14.27
2019-03-19T15:59:38.490Z,14.25
2019-03-19T16:02:10.216Z,14.27
2019-03-19T16:04:42.587Z,14.27
2019-03-19T16:07:14.296Z,14.24
2019-03-19T16:09:46.219Z,14.21
2019-03-19T16:12:17.999Z,14.18
2019-03-19T16:14:49.656Z,14.14
2019-03-19T16:17:21.467Z,14.11
2019-03-19T16:19:53.977Z,14.09
2019-03-19T16:22:26.118Z,14.07
2019-03-19T16:24:58.050Z,14.04
2019-03-19T16:27:29.832Z,14.00
2019-03-19T16:30:01.488Z,13.98
2019-03-19T16:32:33.522Z,13.98
2019-03-19T16:35:05.769Z,13.95
2019-03-19T16:37:38.219Z,13.88
2019-03-19T16:40:15.006Z,13.91
2019-03-19T16:42:47.133Z,13.91
2019-03-19T16:45:19.034Z,13.88
2019-03-19T16:47:50.722Z,13.86
2019-03-19T16:50:22.733Z,13.84
2019-03-19T16:52:55.443Z,13.82
2019-03-19T16:55:27.245Z,13.78
2019-03-19T16:57:58.961Z,13.77
2019-03-19T17:00:30.566Z,13.76
2019-03-19T17:03:02.525Z,13.73
2019-03-19T17:05:35.327Z,13.71
2019-03-19T17:08:07.716Z,13.70
2019-03-19T17:10:39.695Z,13.66
2019-03-19T17:13:11.713Z,13.64
2019-03-19T17:15:43.502Z,13.61
2019-03-19T17:18:15.210Z,13.60
2019-03-19T17:20:47.082Z,13.55
2019-03-19T17:23:19.817Z,13.49
2019-03-19T17:25:51.515Z,13.45
2019-03-19T17:28:23.213Z,13.39
2019-03-19T17:30:54.970Z,13.33
2019-03-19T17:33:27.181Z,13.26
2019-03-19T17:35:58.825Z,13.18
2019-03-19T17:38:31.844Z,13.12
2019-03-19T17:41:03.458Z,13.05
2019-03-19T17:43:35.334Z,12.94
2019-03-19T17:46:07.004Z,12.82
2019-03-19T17:48:38.761Z,12.69
2019-03-19T17:51:10.373Z,12.58
2019-03-19T17:53:42.850Z,12.46
2019-03-19T17:56:14.554Z,12.38
2019-03-19T17:58:46.564Z,12.29
2019-03-19T18:01:18.227Z,12.22
2019-03-19T18:03:49.968Z,12.16
2019-03-19T18:06:22.560Z,12.06
2019-03-19T18:08:54.908Z,11.99
2019-03-19T18:11:26.534Z,11.91
2019-03-19T18:13:58.255Z,11.83
2019-03-19T18:16:30.335Z,11.73
2019-03-19T18:19:02.156Z,11.63
2019-03-19T18:21:33.982Z,11.52
2019-03-19T18:24:06.407Z,11.40
2019-03-19T18:26:38.141Z,11.30
2019-03-19T18:29:10.677Z,11.21
2019-03-19T18:31:41.328Z,11.17
2019-03-19T18:34:10.753Z,11.13
2019-03-19T18:36:42.864Z,11.09
2019-03-19T18:39:14.667Z,11.05
2019-03-19T18:41:50.185Z,11.00
2019-03-19T18:44:21.470Z,10.95
2019-03-19T18:46:53.204Z,10.88
2019-03-19T18:49:24.916Z,10.85
2019-03-19T18:51:56.696Z,10.81
2019-03-19T18:54:28.863Z,10.78
2019-03-19T18:57:01.208Z,10.76
2019-03-19T18:59:33.072Z,10.71
2019-03-19T19:02:04.757Z,10.67
2019-03-19T19:04:36.566Z,10.62
2019-03-19T19:07:08.651Z,10.59
2019-03-19T19:09:40.399Z,10.57
2019-03-19T19:12:12.775Z,10.56
2019-03-19T19:14:44.429Z,10.51
2019-03-19T19:17:16.316Z,10.45
2019-03-19T19:19:48.147Z,10.38
2019-03-19T19:22:19.961Z,10.25
2019-03-19T19:24:51.605Z,10.13
2019-03-19T19:27:24.387Z,10.03
2019-03-19T19:29:56.228Z,9.96
2019-03-19T19:32:28.137Z,9.90
2019-03-19T19:35:00.003Z,9.87
2019-03-19T19:37:31.907Z,9.85
2019-03-19T19:40:03.576Z,9.86
2019-03-19T19:42:36.062Z,9.90
2019-03-19T19:45:08.409Z,9.93
2019-03-19T19:47:40.097Z,9.93
2019-03-19T19:50:13.983Z,9.91
2019-03-19T19:52:45.776Z,9.83
2019-03-19T19:55:17.606Z,9.75
2019-03-19T19:57:49.628Z,9.67
2019-03-19T20:00:22.756Z,9.57
2019-03-19T20:02:54.503Z,9.48
2019-03-19T20:05:26.307Z,9.40
2019-03-19T20:07:58.052Z,9.34
2019-03-19T20:10:29.762Z,9.32
2019-03-19T20:13:01.423Z,9.30
2019-03-19T20:20:36.015Z,9.29
2019-03-19T20:23:08.097Z,9.26
2019-03-19T20:25:39.876Z,9.19
2019-03-19T20:28:11.537Z,9.09
2019-03-19T20:30:43.604Z,8.99
2019-03-19T20:33:24.421Z,8.92
2019-03-19T20:35:49.080Z,8.82
2019-03-19T20:38:20.846Z,8.74
2019-03-19T20:40:52.713Z,8.68
2019-03-19T20:43:24.375Z,8.60
2019-03-19T20:51:01.043Z,8.47
2019-03-19T20:53:32.988Z,8.50
2019-03-19T20:56:05.059Z,8.44
2019-03-19T20:58:43.359Z,8.36
2019-03-19T21:01:11.011Z,8.30
2019-03-19T21:03:42.704Z,8.26
2019-03-19T21:06:14.625Z,8.21
2019-03-19T21:08:46.357Z,8.18
2019-03-19T21:11:18.153Z,8.16
2019-03-19T21:13:50.126Z,8.13
2019-03-19T21:16:22.651Z,8.07
2019-03-19T21:18:54.307Z,8.02
2019-03-19T21:21:26.081Z,8.03
2019-03-19T21:23:57.822Z,8.04
2019-03-19T21:26:29.862Z,8.04
2019-03-19T21:29:01.793Z,7.99
2019-03-19T21:36:32.250Z,7.81
2019-03-19T21:39:05.298Z,7.79
2019-03-19T21:41:36.965Z,7.77
2019-03-19T21:44:09.242Z,7.71
2019-03-19T21:46:41.163Z,7.65
2019-03-19T21:49:12.985Z,7.61
2019-03-19T21:51:44.664Z,7.60
2019-03-19T21:54:16.627Z,7.57
2019-03-19T21:56:48.299Z,7.55
2019-03-19T21:59:20.694Z,7.55
2019-03-19T22:01:52.395Z,7.51
2019-03-19T22:04:24.145Z,7.42
2019-03-19T22:06:55.802Z,7.32
2019-03-19T22:09:27.711Z,7.23
2019-03-19T22:11:59.495Z,7.15
2019-03-19T22:14:31.847Z,7.13
2019-03-19T22:17:03.714Z,7.10
2019-03-19T22:19:35.415Z,7.11
2019-03-19T22:22:07.148Z,7.15
2019-03-19T22:24:38.866Z,7.19
2019-03-19T22:27:11.287Z,7.24
2019-03-19T22:29:43.833Z,7.29
2019-03-19T22:32:16.952Z,7.31
2019-03-19T22:34:48.667Z,7.31
2019-03-19T22:37:20.331Z,7.26
2019-03-19T22:39:52.186Z,7.18
2019-03-19T22:42:23.855Z,7.12
2019-03-19T22:44:56.130Z,7.02
2019-03-19T22:47:27.814Z,6.93
2019-03-19T22:49:59.574Z,6.83
2019-03-19T22:52:31.283Z,6.80
2019-03-19T22:55:03.053Z,6.77
2019-03-19T22:57:34.933Z,6.72
2019-03-19T23:00:12.744Z,6.68
2019-03-19T23:02:44.513Z,6.62
2019-03-19T23:05:17.753Z,6.54
2019-03-19T23:07:49.814Z,6.46
2019-03-19T23:10:21.731Z,6.39
2019-03-19T23:12:53.444Z,6.31
2019-03-19T23:15:26.046Z,6.25
2019-03-19T23:17:58.148Z,6.20
2019-03-19T23:20:30.710Z,6.15
2019-03-19T23:23:02.656Z,6.14
2019-03-19T23:25:34.378Z,6.17
2019-03-19T23:28:06.160Z,6.24
2019-03-19T23:30:37.815Z,6.31
2019-03-19T23:33:10.794Z,6.34
2019-03-19T23:35:42.466Z,6.33
2019-03-19T23:38:14.120Z,6.30
2019-03-19T23:40:45.746Z,6.23
2019-03-19T23:43:17.403Z,6.14
2019-03-19T23:45:49.064Z,6.11
2019-03-19T23:48:21.312Z,6.05
2019-03-19T23:50:53.283Z,6.01
2019-03-19T23:53:24.911Z,5.94
2019-03-19T23:55:56.708Z,5.91
2019-03-19T23:58:28.365Z,5.88
